Time;durP1;ratioP1;P1;durP2;ratioP2;P2;SDS_P1;SDS_P2;PMS_P1;PMS_P2;Temp;Humidity;BMP_temperature;BMP_pressure;BME280_temperature;BME280_humidity;BME280_pressure;Samples;Min_cycle;Max_cycle;Signal;HPM_P1;HPM_P2
2023/09/12 00:00:05;;;;;;;1.00;1.00;;;17.30;99.90;;;;;;5006721;28;20472;-90
2023/09/12 00:02:38;;;;;;;1.15;1.08;;;17.30;99.90;;;;;;5014762;28;20663;-90
2023/09/12 00:05:05;;;;;;;2.80;1.05;;;17.30;99.90;;;;;;5007026;28;20029;-89
2023/09/12 00:07:31;;;;;;;1.25;1.15;;;17.20;99.90;;;;;;5003678;28;20025;-90
2023/09/12 00:09:58;;;;;;;0.63;0.63;;;17.20;99.90;;;;;;5006034;28;20033;-81
2023/09/12 00:12:27;;;;;;;6.65;2.30;;;17.20;99.90;;;;;;5002615;28;20482;-89
2023/09/12 00:14:53;;;;;;;1.27;1.23;;;17.20;99.90;;;;;;5002131;28;20031;-89
2023/09/12 00:17:19;;;;;;;1.65;1.45;;;17.30;99.90;;;;;;5006972;28;20034;-89
2023/09/12 00:19:46;;;;;;;3.00;1.85;;;17.20;99.90;;;;;;5000595;28;20355;-89
2023/09/12 00:22:12;;;;;;;3.35;1.23;;;17.20;99.90;;;;;;5000080;28;20037;-88
2023/09/12 00:24:38;;;;;;;0.45;0.30;;;17.00;99.90;;;;;;5007819;28;20094;-89
2023/09/12 00:27:05;;;;;;;1.83;1.67;;;16.80;99.90;;;;;;5007875;28;20032;-88
2023/09/12 00:29:32;;;;;;;1.30;0.85;;;16.70;1.00;;;;;;5001348;28;20038;-87
2023/09/12 00:31:59;;;;;;;1.90;1.15;;;16.60;1.00;;;;;;5003425;28;20345;-82
2023/09/12 00:34:25;;;;;;;2.83;1.40;;;16.60;1.00;;;;;;5004941;28;20029;-87
2023/09/12 00:36:51;;;;;;;1.63;1.52;;;16.60;1.00;;;;;;5003801;28;20336;-88
2023/09/12 00:39:17;;;;;;;1.80;0.68;;;16.60;1.00;;;;;;4996289;28;20034;-87
2023/09/12 00:41:44;;;;;;;1.27;0.90;;;16.60;1.00;;;;;;5009326;28;20046;-88
2023/09/12 00:44:10;;;;;;;2.05;1.45;;;16.50;1.00;;;;;;4999363;28;20053;-87
2023/09/12 00:46:38;;;;;;;5.07;2.22;;;16.50;1.00;;;;;;5007312;28;20030;-88
2023/09/12 00:49:07;;;;;;;1.27;1.17;;;16.50;1.00;;;;;;4999665;28;20031;-84
2023/09/12 00:51:34;;;;;;;2.30;1.52;;;16.30;1.00;;;;;;5010227;28;20039;-87
2023/09/12 00:54:01;;;;;;;5.03;2.50;;;16.20;1.00;;;;;;5003210;28;20045;-85
2023/09/12 00:56:27;;;;;;;2.80;1.55;;;16.20;1.00;;;;;;5002062;28;20440;-86
2023/09/12 00:58:54;;;;;;;8.10;2.33;;;16.30;1.00;;;;;;5005737;28;20042;-88
2023/09/12 01:01:20;;;;;;;1.48;1.38;;;16.20;1.00;;;;;;5001855;28;20239;-89
2023/09/12 01:03:47;;;;;;;4.35;2.38;;;16.10;1.00;;;;;;5010938;28;20030;-89
2023/09/12 01:06:19;;;;;;;0.63;0.63;;;16.00;1.00;;;;;;5002952;28;20347;-89
2023/09/12 01:08:46;;;;;;;1.73;1.63;;;16.10;1.00;;;;;;5008918;28;20104;-89
2023/09/12 01:11:14;;;;;;;1.42;0.85;;;16.10;1.00;;;;;;5004004;28;20038;-88
2023/09/12 01:13:40;;;;;;;2.00;1.20;;;16.20;1.00;;;;;;5004831;28;20053;-89
2023/09/12 01:16:06;;;;;;;1.52;0.95;;;16.20;1.00;;;;;;5002482;28;20030;-88
2023/09/12 01:18:33;;;;;;;13.13;1.67;;;16.30;1.00;;;;;;5006242;28;20026;-86
2023/09/12 01:21:08;;;;;;;3.05;1.65;;;16.30;1.00;;;;;;5016486;28;20038;-87
2023/09/12 01:24:13;;;;;;;0.82;0.77;;;16.30;1.00;;;;;;5027807;28;20062;-83
2023/09/12 01:27:17;;;;;;;1.00;0.90;;;16.20;1.00;;;;;;5027146;28;20030;-88
2023/09/12 01:29:45;;;;;;;3.22;1.25;;;16.20;1.00;;;;;;5027930;28;20048;-85
2023/09/12 01:32:14;;;;;;;3.38;1.73;;;16.10;1.00;;;;;;5027131;28;20033;-89
2023/09/12 01:34:40;;;;;;;7.97;3.20;;;16.10;1.00;;;;;;5018503;28;20030;-88
2023/09/12 01:37:06;;;;;;;1.73;1.63;;;16.00;1.00;;;;;;5024747;28;20038;-89
2023/09/12 01:39:32;;;;;;;1.45;1.25;;;16.00;1.00;;;;;;5003839;28;20030;-87
2023/09/12 01:42:00;;;;;;;3.40;1.13;;;16.00;1.00;;;;;;5006328;28;20034;-89
2023/09/12 01:44:28;;;;;;;1.30;1.20;;;16.10;1.00;;;;;;5003097;28;20038;-89
2023/09/12 01:46:57;;;;;;;3.65;2.65;;;16.10;1.00;;;;;;5006542;28;20053;-88
2023/09/12 01:49:26;;;;;;;1.85;1.13;;;16.10;1.00;;;;;;5004936;28;20031;-88
2023/09/12 01:51:53;;;;;;;1.08;0.77;;;16.20;1.00;;;;;;5018162;28;20038;-88
2023/09/12 01:54:21;;;;;;;5.60;2.55;;;16.10;1.00;;;;;;5012948;28;20037;-88
2023/09/12 01:56:47;;;;;;;16.17;1.40;;;16.20;1.00;;;;;;5011705;28;20033;-89
2023/09/12 01:59:14;;;;;;;5.80;1.58;;;16.00;1.00;;;;;;5021829;28;20045;-88
2023/09/12 02:01:42;;;;;;;3.25;2.28;;;15.90;1.00;;;;;;5009992;28;20050;-89
2023/09/12 02:04:08;;;;;;;0.95;0.70;;;15.80;1.00;;;;;;5002194;28;20033;-89
2023/09/12 02:06:35;;;;;;;0.30;0.30;;;15.80;1.00;;;;;;5007365;28;20041;-86
2023/09/12 02:09:01;;;;;;;4.68;1.00;;;15.80;1.00;;;;;;5003076;28;20038;-90
2023/09/12 02:11:27;;;;;;;1.30;1.05;;;15.80;1.00;;;;;;5003086;28;20037;-87
2023/09/12 02:13:54;;;;;;;1.55;0.52;;;15.70;1.00;;;;;;5010393;28;20037;-89
2023/09/12 02:16:20;;;;;;;9.07;1.65;;;15.70;1.00;;;;;;5008693;28;20055;-89
2023/09/12 02:18:46;;;;;;;1.88;1.13;;;15.70;1.00;;;;;;5008169;28;20380;-87
2023/09/12 02:21:12;;;;;;;0.80;0.80;;;15.70;1.00;;;;;;4990621;28;20395;-89
2023/09/12 02:23:38;;;;;;;1.98;1.85;;;15.80;1.00;;;;;;5018767;28;20030;-89
2023/09/12 02:26:05;;;;;;;3.78;1.38;;;15.90;1.00;;;;;;5012000;28;20038;-84
2023/09/12 02:28:31;;;;;;;2.45;1.05;;;15.90;1.00;;;;;;5001958;28;20413;-89
2023/09/12 02:30:57;;;;;;;1.75;1.60;;;15.90;1.00;;;;;;5003206;28;20054;-89
2023/09/12 02:33:24;;;;;;;0.93;0.88;;;15.80;1.00;;;;;;5022980;28;20110;-89
2023/09/12 02:35:51;;;;;;;1.75;1.30;;;15.80;1.00;;;;;;5011249;28;20034;-88
2023/09/12 02:38:18;;;;;;;1.42;1.27;;;15.90;1.00;;;;;;5006429;28;20037;-88
2023/09/12 02:40:44;;;;;;;12.27;1.83;;;15.90;1.00;;;;;;5003162;28;20038;-88
2023/09/12 02:43:10;;;;;;;4.30;1.00;;;16.00;1.00;;;;;;4996091;28;20045;-88
2023/09/12 02:45:36;;;;;;;3.05;1.10;;;16.00;1.00;;;;;;5003421;28;20041;-89
2023/09/12 02:48:03;;;;;;;2.38;1.42;;;16.00;1.00;;;;;;5003289;28;20050;-87
2023/09/12 02:50:29;;;;;;;0.70;0.65;;;16.00;1.00;;;;;;5020705;28;20061;-84
2023/09/12 02:52:55;;;;;;;3.38;1.80;;;16.10;1.00;;;;;;5001782;28;20026;-88
2023/09/12 02:55:21;;;;;;;2.05;1.50;;;16.10;1.00;;;;;;5009888;28;20050;-87
2023/09/12 02:57:47;;;;;;;18.20;4.07;;;16.20;1.00;;;;;;5007094;28;20049;-88
2023/09/12 03:00:14;;;;;;;0.90;0.90;;;16.20;1.00;;;;;;5007005;28;20046;-88
2023/09/12 03:02:40;;;;;;;1.23;1.13;;;16.10;1.00;;;;;;5010632;28;20038;-89
2023/09/12 03:05:07;;;;;;;1.10;0.82;;;16.10;1.00;;;;;;5008389;28;20386;-81
2023/09/12 03:07:33;;;;;;;11.85;2.08;;;16.20;1.00;;;;;;5008448;28;20028;-88
2023/09/12 03:09:59;;;;;;;1.52;1.23;;;16.20;1.00;;;;;;5011118;28;20073;-89
2023/09/12 03:12:25;;;;;;;4.97;0.52;;;16.10;1.00;;;;;;5001364;28;20369;-89
2023/09/12 03:14:51;;;;;;;1.63;1.23;;;16.20;1.00;;;;;;5002454;28;20042;-88
2023/09/12 03:17:18;;;;;;;1.13;1.02;;;16.20;1.00;;;;;;5002195;28;20423;-88
2023/09/12 03:19:44;;;;;;;1.73;1.63;;;16.30;1.00;;;;;;5011554;28;20042;-89
2023/09/12 03:22:10;;;;;;;1.92;0.95;;;16.40;1.00;;;;;;5002574;28;20037;-88
2023/09/12 03:24:36;;;;;;;1.42;0.93;;;16.40;1.00;;;;;;5007313;28;20030;-89
2023/09/12 03:27:02;;;;;;;9.80;2.05;;;16.40;1.00;;;;;;5003914;28;20042;-89
2023/09/12 03:29:29;;;;;;;1.23;0.95;;;16.30;1.00;;;;;;5009818;28;20043;-88
2023/09/12 03:31:55;;;;;;;0.80;0.73;;;16.30;1.00;;;;;;5005117;28;20476;-89
2023/09/12 03:34:21;;;;;;;1.23;1.13;;;16.30;1.00;;;;;;5010910;28;20100;-87
2023/09/12 03:36:48;;;;;;;0.60;0.60;;;16.30;1.00;;;;;;5005697;28;20049;-89
2023/09/12 03:39:14;;;;;;;1.83;1.73;;;16.30;1.00;;;;;;5004102;28;20042;-88
2023/09/12 03:41:41;;;;;;;4.25;1.70;;;16.40;1.00;;;;;;5006835;28;20055;-88
2023/09/12 03:44:08;;;;;;;9.75;1.92;;;16.40;1.00;;;;;;5011413;28;20491;-88
2023/09/12 03:46:35;;;;;;;2.30;2.10;;;16.40;1.00;;;;;;4992736;28;20052;-89
2023/09/12 03:49:01;;;;;;;0.70;0.70;;;16.40;1.00;;;;;;4992998;28;20045;-88
2023/09/12 03:51:27;;;;;;;2.65;1.67;;;16.50;1.00;;;;;;5016096;28;20034;-84
2023/09/12 03:53:54;;;;;;;5.65;1.55;;;16.50;1.00;;;;;;5035522;28;20049;-80
2023/09/12 03:56:20;;;;;;;1.20;1.10;;;16.60;1.00;;;;;;5011793;28;20059;-83
2023/09/12 03:58:46;;;;;;;7.45;2.58;;;16.70;1.00;;;;;;5026361;28;20026;-82
2023/09/12 04:01:13;;;;;;;3.70;1.75;;;16.70;1.00;;;;;;5020193;28;20064;-89
2023/09/12 04:03:39;;;;;;;1.10;0.95;;;16.80;1.00;;;;;;5032862;28;20613;-87
2023/09/12 04:06:05;;;;;;;0.77;0.70;;;16.80;1.00;;;;;;5027234;28;20050;-89
2023/09/12 04:08:32;;;;;;;3.08;1.50;;;16.80;1.00;;;;;;5010830;28;20506;-88
2023/09/12 04:10:58;;;;;;;1.65;1.48;;;16.90;1.00;;;;;;5003315;28;20042;-79
2023/09/12 04:13:24;;;;;;;2.30;1.10;;;16.90;1.00;;;;;;5001331;28;20042;-79
2023/09/12 04:15:51;;;;;;;1.45;1.27;;;16.90;1.00;;;;;;5006762;28;20041;-79
2023/09/12 04:18:17;;;;;;;1.40;1.30;;;16.90;1.00;;;;;;5008483;28;20049;-80
2023/09/12 04:20:43;;;;;;;0.90;0.90;;;16.90;1.00;;;;;;5003024;28;20054;-80
2023/09/12 04:23:09;;;;;;;0.85;0.73;;;16.90;1.00;;;;;;5011377;28;20029;-81
2023/09/12 04:25:35;;;;;;;4.05;2.30;;;17.00;1.00;;;;;;5012313;28;20029;-80
2023/09/12 04:28:02;;;;;;;9.80;2.53;;;17.10;1.00;;;;;;5009266;28;20041;-81
2023/09/12 04:30:28;;;;;;;0.73;0.73;;;17.10;6.70;;;;;;4990377;28;20384;-80
2023/09/12 04:32:55;;;;;;;3.10;1.10;;;17.10;1.00;;;;;;5004992;28;20049;-78
2023/09/12 04:35:22;;;;;;;0.55;0.55;;;17.10;1.00;;;;;;5004258;28;20412;-78
2023/09/12 04:37:48;;;;;;;6.63;1.45;;;17.10;1.00;;;;;;5008299;28;20391;-79
2023/09/12 04:40:15;;;;;;;1.50;1.10;;;17.10;1.00;;;;;;5004213;28;20061;-78
2023/09/12 04:42:41;;;;;;;1.10;0.98;;;17.00;1.00;;;;;;5005545;28;20049;-78
2023/09/12 04:45:08;;;;;;;5.10;2.28;;;17.00;1.00;;;;;;5008123;28;20065;-78
2023/09/12 04:47:34;;;;;;;4.13;1.45;;;17.00;1.00;;;;;;5016925;28;20034;-78
2023/09/12 04:50:01;;;;;;;2.75;2.55;;;16.90;1.00;;;;;;5010645;28;20041;-77
2023/09/12 04:52:28;;;;;;;1.63;1.42;;;16.80;1.00;;;;;;5007590;28;20045;-74
2023/09/12 04:54:55;;;;;;;1.30;0.80;;;16.80;2.10;;;;;;5010143;28;20478;-78
2023/09/12 04:57:21;;;;;;;1.00;0.95;;;16.80;8.30;;;;;;4998251;28;20034;-78
2023/09/12 04:59:47;;;;;;;1.67;1.55;;;16.80;10.90;;;;;;5005876;28;20041;-78
2023/09/12 05:02:13;;;;;;;0.95;0.93;;;16.90;19.60;;;;;;5000119;28;20042;-79
2023/09/12 05:04:40;;;;;;;2.78;1.88;;;16.90;33.00;;;;;;4998925;28;20053;-79
2023/09/12 05:07:06;;;;;;;1.40;1.30;;;17.10;37.00;;;;;;5006691;28;20114;-79
2023/09/12 05:09:32;;;;;;;1.00;0.93;;;17.20;1.40;;;;;;5008598;28;20474;-79
2023/09/12 05:11:58;;;;;;;3.95;2.25;;;17.20;1.00;;;;;;4987084;28;20045;-79
2023/09/12 05:14:24;;;;;;;2.88;1.85;;;17.10;1.00;;;;;;4997164;28;20459;-79
2023/09/12 05:16:50;;;;;;;1.67;1.23;;;17.10;1.00;;;;;;5009152;28;20063;-79
2023/09/12 05:19:17;;;;;;;2.58;1.67;;;17.10;1.00;;;;;;5008258;28;20057;-79
2023/09/12 05:21:43;;;;;;;2.22;2.03;;;17.10;1.00;;;;;;4988050;28;20046;-79
2023/09/12 05:24:10;;;;;;;2.63;1.67;;;17.10;1.00;;;;;;5016925;28;20038;-79
2023/09/12 05:26:36;;;;;;;2.28;1.75;;;17.00;1.00;;;;;;5006716;28;20045;-78
2023/09/12 05:29:02;;;;;;;3.72;2.15;;;17.00;1.00;;;;;;5003330;28;20048;-78
2023/09/12 05:31:28;;;;;;;1.08;0.55;;;17.10;1.00;;;;;;4998585;28;20050;-80
2023/09/12 05:33:55;;;;;;;1.58;1.23;;;17.10;4.70;;;;;;5007762;28;20038;-78
2023/09/12 05:36:21;;;;;;;7.60;2.10;;;17.10;10.50;;;;;;5004236;28;20029;-80
2023/09/12 05:38:47;;;;;;;1.83;1.73;;;17.20;14.30;;;;;;5001390;28;20037;-80
2023/09/12 05:41:14;;;;;;;1.40;0.77;;;17.20;1.60;;;;;;5000990;28;20038;-82
2023/09/12 05:43:40;;;;;;;6.03;2.13;;;17.30;2.00;;;;;;5013700;28;20037;-79
2023/09/12 05:46:06;;;;;;;1.02;0.93;;;17.40;3.60;;;;;;4996601;28;20764;-78
2023/09/12 05:48:32;;;;;;;1.48;1.23;;;17.50;1.00;;;;;;5001590;28;20042;-78
2023/09/12 05:50:59;;;;;;;1.77;1.52;;;17.60;1.00;;;;;;5005290;28;20038;-79
2023/09/12 05:53:25;;;;;;;1.63;1.52;;;17.70;1.00;;;;;;4981067;28;20042;-79
2023/09/12 05:55:51;;;;;;;8.40;2.90;;;17.90;1.00;;;;;;5001414;28;20105;-79
2023/09/12 05:58:17;;;;;;;1.70;1.48;;;18.00;1.00;;;;;;5001567;28;20034;-78
2023/09/12 06:00:44;;;;;;;6.88;1.73;;;18.40;99.90;;;;;;5006441;28;20054;-80
2023/09/12 06:03:12;;;;;;;2.30;1.58;;;19.30;99.90;;;;;;5003179;28;20042;-78
2023/09/12 06:05:38;;;;;;;5.40;1.88;;;20.10;95.80;;;;;;5002294;28;20336;-85
2023/09/12 06:08:04;;;;;;;1.13;1.02;;;20.90;1.00;;;;;;4989115;28;20417;-86
2023/09/12 06:10:31;;;;;;;2.95;2.08;;;21.40;1.00;;;;;;5013577;28;20037;-85
2023/09/12 06:12:57;;;;;;;2.95;1.88;;;21.90;1.00;;;;;;5014642;28;20045;-85
2023/09/12 06:15:23;;;;;;;3.22;1.52;;;22.40;99.90;;;;;;5012063;28;20513;-85
2023/09/12 06:17:49;;;;;;;2.35;1.17;;;21.90;99.90;;;;;;5017714;28;20029;-85
2023/09/12 06:20:15;;;;;;;2.38;1.90;;;21.10;1.00;;;;;;5019047;28;20036;-86
2023/09/12 06:22:43;;;;;;;2.28;1.42;;;20.40;1.00;;;;;;5015410;28;20510;-84
2023/09/12 06:25:09;;;;;;;1.38;0.95;;;20.10;12.00;;;;;;5019042;28;20048;-84
2023/09/12 06:27:35;;;;;;;2.28;1.77;;;20.00;34.70;;;;;;5008159;28;20619;-84
2023/09/12 06:30:01;;;;;;;1.30;1.20;;;19.90;87.50;;;;;;5003038;28;20045;-85
2023/09/12 06:32:28;;;;;;;3.22;2.17;;;20.00;52.80;;;;;;5006727;28;20105;-84
2023/09/12 06:34:54;;;;;;;2.88;2.05;;;20.00;52.50;;;;;;5006510;28;20030;-84
2023/09/12 06:37:20;;;;;;;0.70;0.70;;;20.20;59.00;;;;;;5008320;28;20022;-85
2023/09/12 06:39:50;;;;;;;3.10;2.22;;;20.60;51.10;;;;;;5003475;28;20042;-84
2023/09/12 06:42:17;;;;;;;1.73;1.50;;;21.50;1.00;;;;;;5006377;28;20101;-85
2023/09/12 06:44:43;;;;;;;4.22;2.08;;;22.10;1.00;;;;;;5007988;28;20038;-85
2023/09/12 06:47:10;;;;;;;2.05;1.88;;;22.70;99.90;;;;;;4998282;28;20026;-85
2023/09/12 06:49:37;;;;;;;0.82;0.80;;;23.10;99.90;;;;;;4985868;28;20201;-85
2023/09/12 06:52:04;;;;;;;6.13;2.80;;;23.20;99.90;;;;;;5007601;28;20042;-85
2023/09/12 06:54:30;;;;;;;1.33;1.23;;;23.20;99.90;;;;;;4994074;28;20046;-84
2023/09/12 06:56:56;;;;;;;1.73;1.48;;;23.40;99.90;;;;;;5003768;28;20030;-85
2023/09/12 06:59:22;;;;;;;1.15;1.05;;;23.80;99.90;;;;;;5006090;28;20038;-86
2023/09/12 07:01:48;;;;;;;1.55;0.85;;;24.10;99.90;;;;;;5005762;28;20046;-85
2023/09/12 07:04:14;;;;;;;2.42;1.92;;;24.20;99.90;;;;;;5008894;28;20027;-85
2023/09/12 07:06:42;;;;;;;1.17;0.85;;;24.20;99.90;;;;;;5000707;28;20399;-85
2023/09/12 07:09:08;;;;;;;2.03;1.13;;;24.00;99.90;;;;;;5005792;28;20026;-85
2023/09/12 07:11:35;;;;;;;4.38;2.85;;;24.10;99.90;;;;;;5009190;28;20054;-85
2023/09/12 07:14:03;;;;;;;2.08;1.92;;;24.30;99.90;;;;;;5004409;28;20030;-85
2023/09/12 07:16:31;;;;;;;2.28;1.63;;;24.30;99.90;;;;;;5023379;28;20034;-85
2023/09/12 07:18:57;;;;;;;1.95;1.42;;;24.50;99.90;;;;;;5007634;28;20023;-86
2023/09/12 07:21:23;;;;;;;2.20;1.77;;;24.90;99.90;;;;;;5004355;28;20356;-87
2023/09/12 07:23:49;;;;;;;3.13;0.80;;;24.80;99.90;;;;;;5004898;28;20479;-87
2023/09/12 07:26:15;;;;;;;4.65;2.42;;;24.80;99.90;;;;;;5011423;28;20101;-86
2023/09/12 07:28:42;;;;;;;2.50;2.15;;;25.00;99.90;;;;;;5004813;28;20384;-87
2023/09/12 07:31:08;;;;;;;2.20;1.58;;;25.10;99.90;;;;;;5009750;28;20049;-86
2023/09/12 07:33:38;;;;;;;4.05;1.70;;;25.10;99.90;;;;;;5003454;28;20026;-86
2023/09/12 07:36:04;;;;;;;2.45;1.63;;;25.00;99.90;;;;;;5012116;28;20049;-87
2023/09/12 07:38:35;;;;;;;3.47;2.28;;;24.90;99.90;;;;;;5002823;28;20049;-86
2023/09/12 07:41:02;;;;;;;2.67;2.47;;;24.40;99.90;;;;;;4989321;28;20034;-86
2023/09/12 07:43:29;;;;;;;2.75;1.98;;;24.60;99.90;;;;;;5004979;28;20052;-87
2023/09/12 07:45:57;;;;;;;3.38;1.73;;;25.00;99.90;;;;;;5001401;28;20030;-87
2023/09/12 07:48:23;;;;;;;3.65;2.10;;;25.50;98.60;;;;;;4992303;28;20038;-88
2023/09/12 07:50:49;;;;;;;3.85;1.90;;;25.20;94.00;;;;;;4996041;28;20029;-87
2023/09/12 07:53:15;;;;;;;4.05;2.75;;;24.90;99.00;;;;;;5001933;28;20045;-87
2023/09/12 07:55:47;;;;;;;3.83;1.85;;;25.00;99.90;;;;;;5010390;28;20056;-87
2023/09/12 07:58:21;;;;;;;2.78;1.63;;;24.80;98.20;;;;;;5001617;28;20027;-89
2023/09/12 08:00:47;;;;;;;1.48;1.27;;;24.60;99.90;;;;;;5008415;28;20423;-88
2023/09/12 08:03:15;;;;;;;2.88;1.92;;;24.80;98.60;;;;;;5006151;28;20041;-88
2023/09/12 08:05:41;;;;;;;2.03;1.88;;;25.00;91.80;;;;;;5011361;28;20029;-89
2023/09/12 08:08:07;;;;;;;4.65;1.38;;;25.30;64.50;;;;;;5007604;28;20022;-89
2023/09/12 08:10:33;;;;;;;1.83;1.48;;;25.60;51.10;;;;;;5004334;28;20056;-88
2023/09/12 08:13:00;;;;;;;1.13;1.05;;;25.60;42.30;;;;;;5004793;28;20052;-88
2023/09/12 08:15:26;;;;;;;0.82;0.82;;;25.50;32.40;;;;;;4994712;28;20042;-91
2023/09/12 08:17:54;;;;;;;1.02;0.93;;;25.40;37.30;;;;;;5004510;28;20034;-88
2023/09/12 08:20:20;;;;;;;1.95;0.90;;;25.60;68.40;;;;;;4999586;28;20763;-85
2023/09/12 08:22:47;;;;;;;2.67;1.67;;;26.00;52.10;;;;;;5009178;28;20034;-88
2023/09/12 08:25:14;;;;;;;27.05;3.63;;;26.30;33.00;;;;;;5023472;28;20077;-89
2023/09/12 08:27:42;;;;;;;2.80;1.65;;;26.30;27.70;;;;;;5005665;28;20056;-90
2023/09/12 08:30:08;;;;;;;1.48;1.38;;;26.20;26.50;;;;;;5006248;28;20057;-88
2023/09/12 08:32:35;;;;;;;1.65;1.17;;;26.40;24.00;;;;;;4998668;28;20041;-87
2023/09/12 08:35:02;;;;;;;9.23;2.80;;;26.50;21.30;;;;;;5005408;28;20041;-87
2023/09/12 08:37:28;;;;;;;1.42;1.25;;;26.80;26.60;;;;;;5003059;28;20436;-88
2023/09/12 08:39:57;;;;;;;1.15;1.05;;;27.20;1.00;;;;;;5001861;28;20030;-89
2023/09/12 08:42:26;;;;;;;3.53;1.73;;;27.30;10.50;;;;;;5001153;28;20385;-88
2023/09/12 08:44:53;;;;;;;6.53;1.95;;;27.90;1.00;;;;;;5015397;28;20030;-86
2023/09/12 08:47:22;;;;;;;1.20;1.10;;;28.20;1.00;;;;;;5031214;28;20041;-88
2023/09/12 08:49:48;;;;;;;2.10;1.65;;;28.20;1.00;;;;;;5016701;28;20041;-87
2023/09/12 08:52:14;;;;;;;10.13;1.67;;;28.50;1.00;;;;;;5018180;28;20034;-87
2023/09/12 08:54:41;;;;;;;0.85;0.85;;;28.10;1.00;;;;;;5019257;28;20046;-88
2023/09/12 08:57:10;;;;;;;1.77;1.50;;;28.00;1.00;;;;;;5010043;28;20366;-87
2023/09/12 08:59:38;;;;;;;3.35;2.03;;;28.10;1.00;;;;;;5012616;28;20014;-90
2023/09/12 09:02:07;;;;;;;6.30;1.67;;;28.30;1.00;;;;;;5016241;28;20042;-90
2023/09/12 09:04:34;;;;;;;;;;;28.30;1.00;;;;;;5000966;28;20034;-89
2023/09/12 09:07:03;;;;;;;2.33;1.25;;;28.40;1.00;;;;;;5023662;28;19901;-90
2023/09/12 09:09:30;;;;;;;1.88;1.02;;;28.30;1.00;;;;;;5007249;28;20081;-91
2023/09/12 09:11:56;;;;;;;1.17;1.05;;;28.30;1.00;;;;;;5004871;28;20316;-89
2023/09/12 09:14:22;;;;;;;2.17;1.75;;;28.00;1.00;;;;;;4999572;28;20196;-87
2023/09/12 09:16:49;;;;;;;5.75;2.17;;;27.70;1.00;;;;;;5004511;28;20026;-87
2023/09/12 09:19:16;;;;;;;1.65;1.55;;;27.40;1.00;;;;;;5003373;28;20026;-88
2023/09/12 09:21:42;;;;;;;0.60;0.50;;;27.00;1.00;;;;;;5005442;28;20211;-87
2023/09/12 09:24:10;;;;;;;0.40;0.40;;;27.00;1.00;;;;;;5022836;28;20041;-87
2023/09/12 09:27:00;;;;;;;3.03;1.10;;;27.30;1.00;;;;;;5002484;28;20475;-87
2023/09/12 09:29:31;;;;;;;1.30;0.95;;;27.60;1.00;;;;;;5003117;28;20053;-87
2023/09/12 09:32:01;;;;;;;0.55;0.55;;;27.40;1.00;;;;;;5002154;28;20038;-86
2023/09/12 09:34:29;;;;;;;1.75;1.40;;;27.50;1.00;;;;;;5007350;28;20029;-87
2023/09/12 09:36:56;;;;;;;4.28;1.48;;;27.50;1.00;;;;;;5009098;28;20034;-88
2023/09/12 09:39:30;;;;;;;1.75;1.13;;;27.50;1.00;;;;;;5001664;28;20436;-86
2023/09/12 09:41:57;;;;;;;2.17;0.95;;;27.80;1.00;;;;;;4999400;28;20042;-85
2023/09/12 09:44:26;;;;;;;1.27;1.17;;;28.00;1.00;;;;;;5008018;28;20384;-88
2023/09/12 09:47:02;;;;;;;1.13;1.08;;;27.90;1.00;;;;;;5005625;28;20065;-88
2023/09/12 09:49:31;;;;;;;1.08;1.00;;;27.90;1.00;;;;;;5005195;28;20023;-91
2023/09/12 09:51:58;;;;;;;1.52;1.42;;;27.80;1.00;;;;;;5005474;28;20037;-86
2023/09/12 09:54:25;;;;;;;1.13;0.90;;;27.90;1.00;;;;;;5002682;28;20026;-86
2023/09/12 09:56:56;;;;;;;2.13;1.17;;;27.90;1.00;;;;;;5003616;28;20042;-86
2023/09/12 09:59:24;;;;;;;7.35;1.60;;;27.90;1.00;;;;;;5004238;28;20088;-85
2023/09/12 10:01:55;;;;;;;1.00;1.00;;;27.80;1.00;;;;;;5005691;28;20036;-88
2023/09/12 10:04:23;;;;;;;2.63;1.50;;;27.90;1.00;;;;;;5002613;28;20380;-87
2023/09/12 10:06:50;;;;;;;2.75;1.08;;;27.90;1.00;;;;;;5009904;28;20025;-89
2023/09/12 10:09:17;;;;;;;1.67;1.15;;;28.00;1.00;;;;;;5001578;28;20104;-86
2023/09/12 10:11:46;;;;;;;2.47;1.10;;;28.20;1.00;;;;;;4998014;28;20635;-86
2023/09/12 10:14:15;;;;;;;3.33;1.52;;;28.20;1.00;;;;;;5000905;28;20035;-87
2023/09/12 10:16:47;;;;;;;0.67;0.67;;;28.10;1.00;;;;;;5000513;28;20023;-86
2023/09/12 10:19:26;;;;;;;2.45;1.33;;;28.10;1.00;;;;;;5004695;28;20038;-87
2023/09/12 10:22:23;;;;;;;0.90;0.85;;;28.40;1.00;;;;;;5008338;28;20034;-87
2023/09/12 10:24:51;;;;;;;1.73;1.20;;;28.60;1.00;;;;;;5005728;28;20454;-88
2023/09/12 10:27:20;;;;;;;1.48;1.15;;;28.70;1.00;;;;;;5006387;28;20034;-86
2023/09/12 10:29:49;;;;;;;1.13;1.10;;;28.80;1.00;;;;;;5003750;28;20046;-86
2023/09/12 10:32:18;;;;;;;25.98;2.20;;;29.00;1.00;;;;;;5022640;28;20033;-87
2023/09/12 10:34:47;;;;;;;1.92;1.75;;;28.90;1.00;;;;;;5006138;28;20026;-87
2023/09/12 10:37:16;;;;;;;2.22;1.55;;;28.80;1.00;;;;;;5006524;28;20034;-87
2023/09/12 10:39:47;;;;;;;3.25;1.75;;;28.80;1.00;;;;;;5003934;28;20043;-86
2023/09/12 10:42:13;;;;;;;0.85;0.85;;;28.60;1.00;;;;;;5000018;28;20050;-86
2023/09/12 10:44:40;;;;;;;0.80;0.80;;;28.30;1.00;;;;;;5004472;28;20034;-88
2023/09/12 10:47:07;;;;;;;7.72;2.08;;;28.20;1.00;;;;;;5004098;28;20363;-87
2023/09/12 10:49:33;;;;;;;1.92;1.02;;;28.60;1.00;;;;;;5010753;28;20044;-86
2023/09/12 10:51:59;;;;;;;2.67;1.77;;;28.60;1.00;;;;;;5008735;28;20037;-86
2023/09/12 10:54:37;;;;;;;0.85;0.60;;;28.40;1.00;;;;;;5004613;28;20022;-86
2023/09/12 10:57:05;;;;;;;0.93;0.73;;;28.30;1.00;;;;;;5007170;28;20372;-88
2023/09/12 10:59:35;;;;;;;1.88;1.20;;;28.50;1.00;;;;;;5007636;28;20412;-88
2023/09/12 11:02:27;;;;;;;0.85;0.63;;;28.50;1.00;;;;;;5011786;28;20035;-89
2023/09/12 11:04:53;;;;;;;0.80;0.80;;;28.40;1.00;;;;;;5004014;28;20034;-86
2023/09/12 11:07:37;;;;;;;1.27;1.17;;;28.50;1.00;;;;;;5011323;28;20030;-88
2023/09/12 11:10:16;;;;;;;1.63;1.52;;;28.70;1.00;;;;;;5004581;28;20352;-88
2023/09/12 11:12:43;;;;;;;1.17;0.82;;;28.80;1.00;;;;;;5008674;28;20038;-92
2023/09/12 11:15:13;;;;;;;2.67;1.52;;;28.80;1.00;;;;;;5014785;28;20034;-87
2023/09/12 11:17:44;;;;;;;0.68;0.65;;;28.60;1.00;;;;;;5023337;28;20038;-86
2023/09/12 11:20:11;;;;;;;3.58;1.65;;;28.80;1.00;;;;;;5031126;28;20036;-84
2023/09/12 11:22:41;;;;;;;1.33;0.63;;;28.60;1.00;;;;;;5025891;28;20046;-87
2023/09/12 11:25:18;;;;;;;;;;;28.30;1.00;;;;;;5016305;28;20037;-88
2023/09/12 11:28:01;;;;;;;1.88;1.73;;;28.60;1.00;;;;;;5024796;28;19909;-87
2023/09/12 11:30:30;;;;;;;1.27;1.15;;;28.70;1.00;;;;;;5015231;28;20046;-86
2023/09/12 11:32:57;;;;;;;;;;;28.90;1.00;;;;;;4999683;28;20026;-88
2023/09/12 11:35:25;;;;;;;8.60;1.95;;;28.70;1.00;;;;;;5009248;28;19932;-90
2023/09/12 11:37:53;;;;;;;0.93;0.88;;;28.70;1.00;;;;;;5004702;28;20037;-87
2023/09/12 11:40:24;;;;;;;1.05;0.90;;;28.70;1.00;;;;;;4998681;28;20486;-85
2023/09/12 11:42:51;;;;;;;0.60;0.60;;;28.90;1.00;;;;;;5009219;28;20482;-88
2023/09/12 11:45:19;;;;;;;1.30;0.70;;;29.20;1.00;;;;;;5007832;28;20045;-89
2023/09/12 11:47:46;;;;;;;0.88;0.82;;;29.10;1.00;;;;;;5000648;28;20038;-90
2023/09/12 11:50:33;;;;;;;1.80;1.10;;;29.20;1.00;;;;;;5010711;28;20025;-89
2023/09/12 11:53:10;;;;;;;1.88;1.00;;;29.00;1.00;;;;;;5004597;28;20030;-90
2023/09/12 11:55:53;;;;;;;0.85;0.85;;;29.10;1.00;;;;;;5003681;28;20038;-87
2023/09/12 11:58:21;;;;;;;1.85;1.13;;;29.50;1.00;;;;;;4999114;28;20113;-90
2023/09/12 12:00:51;;;;;;;1.83;1.08;;;29.70;1.00;;;;;;5005785;28;20363;-89
2023/09/12 12:03:19;;;;;;;1.10;0.90;;;29.70;1.00;;;;;;5007016;28;20053;-86
2023/09/12 12:05:46;;;;;;;1.08;0.88;;;29.80;1.00;;;;;;5003717;28;20041;-88
2023/09/12 12:08:13;;;;;;;1.88;1.55;;;29.80;1.00;;;;;;5005956;28;20109;-85
2023/09/12 12:10:40;;;;;;;3.83;1.65;;;29.70;1.00;;;;;;5004147;28;20038;-86
2023/09/12 12:13:11;;;;;;;0.73;0.73;;;29.60;1.00;;;;;;5003573;28;20041;-87
2023/09/12 12:15:37;;;;;;;1.45;1.23;;;29.80;1.00;;;;;;5000213;28;20041;-87
2023/09/12 12:18:04;;;;;;;2.55;1.13;;;29.90;1.00;;;;;;5006518;28;20037;-88
2023/09/12 12:20:30;;;;;;;3.20;2.38;;;30.00;1.00;;;;;;5015698;28;20448;-85
2023/09/12 12:22:57;;;;;;;1.60;1.08;;;30.10;1.00;;;;;;5005600;28;20037;-88
2023/09/12 12:25:23;;;;;;;1.92;1.48;;;30.30;1.00;;;;;;5010967;28;20034;-86
2023/09/12 12:27:49;;;;;;;2.55;1.35;;;30.40;1.00;;;;;;5007050;28;20375;-86
2023/09/12 12:30:17;;;;;;;0.70;0.68;;;30.50;1.00;;;;;;5002726;28;20061;-84
2023/09/12 12:32:52;;;;;;;1.73;1.60;;;30.50;1.00;;;;;;5004044;28;20034;-86
2023/09/12 12:35:20;;;;;;;1.30;0.90;;;30.30;1.00;;;;;;5005242;28;20022;-84
2023/09/12 12:37:48;;;;;;;1.15;1.08;;;30.60;1.00;;;;;;4999393;28;20030;-86
2023/09/12 12:40:15;;;;;;;0.88;0.85;;;30.70;1.00;;;;;;4999685;28;20037;-86
2023/09/12 12:42:42;;;;;;;2.15;1.58;;;30.80;1.00;;;;;;5000608;28;20034;-86
2023/09/12 12:45:13;;;;;;;1.60;1.50;;;30.80;1.00;;;;;;4998656;28;20030;-86
2023/09/12 12:47:39;;;;;;;2.13;1.35;;;30.80;1.00;;;;;;5002752;28;20054;-88
2023/09/12 12:50:12;;;;;;;1.13;1.10;;;30.90;1.00;;;;;;5002806;28;20031;-85
2023/09/12 12:52:40;;;;;;;1.00;1.00;;;30.60;1.00;;;;;;5005946;28;20034;-85
2023/09/12 12:55:16;;;;;;;1.23;0.60;;;30.50;1.00;;;;;;5003623;28;20021;-85
2023/09/12 12:57:44;;;;;;;1.48;0.95;;;30.30;1.00;;;;;;5002350;28;20047;-84